In Rescue
 
Open Full Screen Window  High Contrast Mode
Wind Gusting 14 knots
09
March 19, 2019 6:29 PM CDT
Weather Information
Wind Direction
  210 °
Wind Speed
  09 kt (10 mph)
Wind Gust
  14 kt (16 mph)
Variable Wind
180°
240°
Altimeter
30.17 in
Visibility
10 SM
Temperature
07° C
45° F
Dewpoint
00° C
32° F
Humidity
61%
1hr Rain Fall
00.00 in.
24hr Rain Fall
00.00 in.
Sky Condition
Clear
VFR

METAR K9MN 192329Z AUTO 21009G14KT 180V240 10SM CLR 07/00 A3017 RMK AO1 T00661001

FAA Disclaimer: The data displayed is for advisory purposes only and is not to be used for flight planning or operations.